Time;durP1;ratioP1;P1;durP2;ratioP2;P2;SDS_P1;SDS_P2;PMS_P1;PMS_P2;Temp;Humidity;BMP_temperature;BMP_pressure;BME280_temperature;BME280_humidity;BME280_pressure;Samples;Min_cycle;Max_cycle;Signal;HPM_P1;HPM_P2
2022/05/17 00:02:12;;;;;;;4.88;2.42;;;;;;;15.81;100.00;101947.19;5092828;28;20016;-68
2022/05/17 00:04:38;;;;;;;7.00;1.80;;;;;;;15.85;100.00;101948.16;5091943;28;20024;-68
2022/05/17 00:07:04;;;;;;;7.40;2.10;;;;;;;15.84;100.00;101947.28;5106158;28;20134;-68
2022/05/17 00:09:31;;;;;;;6.20;1.70;;;;;;;15.84;100.00;101941.97;5102018;28;20020;-68
2022/05/17 00:11:57;;;;;;;7.47;1.92;;;;;;;15.85;100.00;101949.03;5106499;28;20020;-68
2022/05/17 00:14:23;;;;;;;7.25;2.22;;;;;;;15.85;100.00;101942.84;5091241;28;20020;-68
2022/05/17 00:16:49;;;;;;;7.72;2.10;;;;;;;15.83;100.00;101948.13;5098084;28;20028;-68
2022/05/17 00:19:16;;;;;;;8.93;2.42;;;;;;;15.87;100.00;101950.81;5106978;28;20035;-67
2022/05/17 00:21:42;;;;;;;7.47;1.88;;;;;;;15.92;100.00;101950.00;5091467;28;20036;-67
2022/05/17 00:24:09;;;;;;;4.97;2.00;;;;;;;15.89;100.00;101949.09;5091749;28;20479;-68
2022/05/17 00:26:35;;;;;;;8.98;1.98;;;;;;;15.88;100.00;101947.28;5098259;28;20032;-68
2022/05/17 00:29:02;;;;;;;5.93;1.85;;;;;;;15.90;100.00;101941.13;5101754;28;20028;-68
2022/05/17 00:31:27;;;;;;;3.88;1.65;;;;;;;15.93;100.00;101942.94;5101961;28;20505;-68
2022/05/17 00:33:53;;;;;;;5.00;2.58;;;;;;;15.97;100.00;101939.44;5095684;28;20024;-67
2022/05/17 00:36:19;;;;;;;6.55;1.90;;;;;;;15.89;100.00;101941.13;5092060;28;20035;-68
2022/05/17 00:38:44;;;;;;;6.03;2.28;;;;;;;15.97;100.00;101942.09;5092140;28;20027;-68
2022/05/17 00:41:09;;;;;;;6.65;2.30;;;;;;;15.98;100.00;101943.91;5091590;28;20467;-69
2022/05/17 00:46:40;;;;;;;6.95;2.40;;;;;;;16.04;100.00;101949.25;5087858;28;20062;-69
2022/05/17 00:49:10;;;;;;;8.90;2.00;;;;;;;16.04;100.00;101951.91;5089304;28;20024;-68
2022/05/17 00:51:36;;;;;;;6.57;1.88;;;;;;;16.02;100.00;101961.63;5095050;28;20045;-68
2022/05/17 00:54:07;;;;;;;7.38;1.83;;;;;;;16.04;100.00;101965.19;5104749;28;20098;-68
2022/05/17 00:56:38;;;;;;;8.10;2.05;;;;;;;16.00;100.00;101958.06;5098992;28;20490;-68
2022/05/17 00:59:04;;;;;;;5.68;1.75;;;;;;;16.01;100.00;101965.16;5115477;28;20026;-69
2022/05/17 01:01:31;;;;;;;6.50;1.85;;;;;;;16.00;100.00;101952.75;5094516;28;20031;-69
2022/05/17 01:04:10;;;;;;;6.13;1.73;;;;;;;15.98;100.00;101966.00;5103656;28;20115;-68
2022/05/17 01:06:42;;;;;;;5.85;1.90;;;;;;;15.99;100.00;101962.50;5096076;28;20581;-69
2022/05/17 01:09:08;;;;;;;5.88;1.58;;;;;;;16.00;100.00;101963.38;5102665;28;20073;-69
2022/05/17 01:11:33;;;;;;;9.63;1.65;;;;;;;15.97;100.00;101963.34;5095398;28;20039;-69
2022/05/17 01:16:42;;;;;;;8.07;1.80;;;;;;;15.95;100.00;101965.06;5099882;28;20065;-67
2022/05/17 01:19:09;;;;;;;8.25;2.08;;;;;;;15.96;100.00;101956.25;5094713;28;20023;-69
2022/05/17 01:21:36;;;;;;;8.80;1.90;;;;;;;15.93;100.00;101956.22;5107713;28;20031;-68
2022/05/17 01:24:02;;;;;;;10.43;1.80;;;;;;;15.89;100.00;101965.00;5097036;28;20028;-68
2022/05/17 01:26:31;;;;;;;7.38;1.90;;;;;;;15.88;100.00;101957.91;5093194;28;20364;-69
2022/05/17 01:28:56;;;;;;;8.40;1.95;;;;;;;15.87;100.00;101956.13;5094456;28;20077;-68
2022/05/17 01:31:22;;;;;;;9.20;2.22;;;;;;;15.87;100.00;101951.72;5094979;28;20386;-69
2022/05/17 01:33:48;;;;;;;4.93;2.03;;;;;;;15.81;100.00;101957.81;5098658;28;20049;-68
2022/05/17 01:36:16;;;;;;;6.97;1.83;;;;;;;15.80;100.00;101965.78;5098983;28;20028;-67
2022/05/17 01:38:50;;;;;;;6.05;2.10;;;;;;;15.73;100.00;101964.75;5094879;28;20031;-68
2022/05/17 01:41:15;;;;;;;;;;;;;;;15.74;100.00;101966.56;5108070;28;20462;-68
2022/05/17 01:43:40;;;;;;;8.57;2.53;;;;;;;15.74;100.00;101961.25;5106885;28;20008;-68
2022/05/17 01:46:07;;;;;;;7.28;2.25;;;;;;;15.66;100.00;101962.91;5106144;28;20028;-68
2022/05/17 01:48:32;;;;;;;4.38;1.73;;;;;;;15.66;100.00;101962.91;5094574;28;20035;-68
2022/05/17 01:50:58;;;;;;;4.85;1.85;;;;;;;15.65;100.00;101962.03;5094963;28;20023;-68
2022/05/17 01:53:23;;;;;;;8.50;2.20;;;;;;;15.66;100.00;101954.94;5094748;28;20383;-68
2022/05/17 01:55:48;;;;;;;10.13;2.05;;;;;;;15.62;100.00;101961.09;5107514;28;20074;-68
2022/05/17 01:58:14;;;;;;;13.95;2.05;;;;;;;15.62;100.00;101954.00;5094315;28;20190;-68
2022/05/17 02:00:39;;;;;;;6.40;2.20;;;;;;;15.60;100.00;101962.81;5098004;28;20110;-68
2022/05/17 02:03:04;;;;;;;5.32;2.33;;;;;;;15.59;100.00;101963.72;5096508;28;20472;-68
2022/05/17 02:05:29;;;;;;;11.98;2.47;;;;;;;15.57;100.00;101965.44;5094607;28;20031;-67
2022/05/17 02:07:55;;;;;;;9.05;2.25;;;;;;;15.54;100.00;101960.09;5094241;28;20032;-67
2022/05/17 02:10:25;;;;;;;6.40;2.15;;;;;;;15.48;100.00;101958.25;5103533;28;20030;-67
2022/05/17 02:12:53;;;;;;;9.48;2.40;;;;;;;15.47;100.00;101961.75;5094207;28;20016;-68
2022/05/17 02:15:19;;;;;;;8.35;2.10;;;;;;;15.46;100.00;101971.50;5098657;28;20028;-67
2022/05/17 02:17:44;;;;;;;10.02;2.42;;;;;;;15.45;100.00;101969.69;5094525;28;20341;-67
2022/05/17 02:20:10;;;;;;;5.28;2.03;;;;;;;15.44;100.00;101980.28;5094120;28;20042;-67
2022/05/17 02:22:36;;;;;;;8.23;2.30;;;;;;;15.44;100.00;101969.69;5094306;28;20024;-67
2022/05/17 02:25:01;;;;;;;4.72;2.20;;;;;;;15.46;100.00;101971.50;5094165;28;20065;-68
2022/05/17 02:27:27;;;;;;;7.60;2.38;;;;;;;15.47;100.00;101978.56;5093343;28;20028;-68
2022/05/17 02:29:52;;;;;;;5.05;2.08;;;;;;;15.41;100.00;101973.19;5094211;28;20553;-68
2022/05/17 02:32:17;;;;;;;7.10;2.28;;;;;;;15.36;100.00;101974.88;5093898;28;20020;-68
2022/05/17 02:34:43;;;;;;;5.25;2.25;;;;;;;15.31;100.00;101974.81;5107653;28;20250;-68
2022/05/17 02:37:09;;;;;;;5.70;2.15;;;;;;;15.34;100.00;101976.59;5097973;27;20107;-69
2022/05/17 02:39:34;;;;;;;8.75;2.40;;;;;;;15.24;100.00;101974.69;5100438;28;20039;-68
2022/05/17 02:42:00;;;;;;;9.10;2.63;;;;;;;15.27;100.00;101982.69;5106312;28;20428;-68
2022/05/17 02:44:25;;;;;;;4.20;2.20;;;;;;;15.23;100.00;101986.16;5101847;28;20035;-69
2022/05/17 02:46:50;;;;;;;6.03;2.05;;;;;;;15.16;100.00;101982.50;5101210;28;20016;-68
2022/05/17 02:49:16;;;;;;;6.68;2.40;;;;;;;15.17;100.00;101985.19;5091941;28;20043;-68
2022/05/17 02:51:42;;;;;;;6.45;2.40;;;;;;;15.11;100.00;101979.81;5102378;28;20040;-68
2022/05/17 02:54:10;;;;;;;5.53;2.00;;;;;;;15.10;100.00;101979.78;5102456;28;20016;-67
2022/05/17 02:56:36;;;;;;;2.95;1.90;;;;;;;15.07;100.00;101982.34;5106237;28;20444;-67
2022/05/17 02:59:01;;;;;;;9.02;2.97;;;;;;;15.00;100.00;101982.28;5100792;28;20106;-68
2022/05/17 03:01:26;;;;;;;4.63;2.22;;;;;;;15.03;100.00;101984.09;5092403;28;20459;-68
2022/05/17 03:03:52;;;;;;;5.60;2.65;;;;;;;15.07;100.00;101988.56;5111847;28;20084;-67
2022/05/17 03:06:17;;;;;;;7.70;2.70;;;;;;;15.00;100.00;101987.56;5104158;28;20020;-68
2022/05/17 03:08:42;;;;;;;5.80;2.20;;;;;;;14.99;100.00;101987.56;5099634;28;20470;-69
2022/05/17 03:11:08;;;;;;;8.13;2.80;;;;;;;14.95;100.00;101981.28;5093193;28;20020;-68
2022/05/17 03:13:35;;;;;;;7.40;2.53;;;;;;;14.90;100.00;101977.66;5093102;28;20024;-68
2022/05/17 03:16:01;;;;;;;6.70;2.17;;;;;;;14.89;100.00;101983.84;5097737;28;20032;-68
2022/05/17 03:18:26;;;;;;;5.50;2.15;;;;;;;14.90;100.00;101979.44;5107147;28;20050;-68
2022/05/17 03:20:51;;;;;;;4.13;2.38;;;;;;;14.88;100.00;101974.13;5107296;28;20379;-68
2022/05/17 03:23:17;;;;;;;7.63;2.55;;;;;;;14.89;100.00;101972.34;5095729;28;20024;-68
2022/05/17 03:25:42;;;;;;;9.13;2.80;;;;;;;14.87;100.00;101974.97;5104867;28;20027;-68
2022/05/17 03:28:11;;;;;;;6.47;2.83;;;;;;;14.94;100.00;101981.28;5096462;28;20020;-68
2022/05/17 03:30:37;;;;;;;7.05;2.90;;;;;;;14.97;100.00;101997.22;5101967;28;20035;-68
2022/05/17 03:33:02;;;;;;;10.13;3.35;;;;;;;14.96;100.00;101996.34;5093238;28;20487;-69
2022/05/17 03:35:27;;;;;;;6.93;2.47;;;;;;;14.97;100.00;102002.53;5092672;28;20047;-68
2022/05/17 03:37:53;;;;;;;8.18;2.28;;;;;;;14.97;100.00;101997.22;5092994;28;20031;-67
2022/05/17 03:40:18;;;;;;;9.10;2.50;;;;;;;15.01;100.00;102007.88;5092795;28;20077;-67
2022/05/17 03:42:44;;;;;;;7.70;2.20;;;;;;;15.06;100.00;102010.63;5096243;28;20039;-68
2022/05/17 03:45:10;;;;;;;5.55;2.40;;;;;;;15.11;100.00;102006.31;5098691;28;20048;-68
2022/05/17 03:47:36;;;;;;;7.03;2.72;;;;;;;15.13;100.00;102008.97;5092376;28;20028;-68
2022/05/17 03:50:03;;;;;;;8.80;3.00;;;;;;;15.16;100.00;102014.31;5093011;28;20021;-67
2022/05/17 03:52:31;;;;;;;10.82;2.75;;;;;;;15.20;100.00;102010.84;5092863;28;20028;-68
2022/05/17 03:54:58;;;;;;;7.85;2.90;;;;;;;15.22;100.00;102019.75;5092104;28;20031;-68
2022/05/17 03:57:24;;;;;;;11.23;2.83;;;;;;;15.27;100.00;102022.44;5092453;28;20055;-68
2022/05/17 03:59:50;;;;;;;9.25;2.92;;;;;;;15.29;100.00;102020.72;5092730;28;20102;-68
2022/05/17 04:02:15;;;;;;;11.13;3.53;;;;;;;15.31;100.00;102018.97;5101304;28;20054;-67
2022/05/17 04:04:41;;;;;;;8.30;3.10;;;;;;;15.32;100.00;102029.59;5092639;28;20031;-67
2022/05/17 04:07:06;;;;;;;10.13;3.08;;;;;;;15.37;100.00;102029.69;5092377;28;20024;-68
2022/05/17 04:09:31;;;;;;;6.22;3.00;;;;;;;15.37;100.00;102028.78;5092325;28;20081;-68
2022/05/17 04:11:57;;;;;;;12.57;3.72;;;;;;;15.38;100.00;102025.28;5094992;28;20052;-68
2022/05/17 04:14:22;;;;;;;10.50;3.40;;;;;;;15.44;100.00;102025.38;5104906;28;20371;-68
2022/05/17 04:16:48;;;;;;;6.70;2.85;;;;;;;15.46;100.00;102035.16;5109565;28;20395;-68
2022/05/17 04:19:15;;;;;;;6.15;2.75;;;;;;;15.46;100.00;102029.84;5104754;28;20034;-67
2022/05/17 04:21:42;;;;;;;11.02;3.17;;;;;;;15.49;100.00;102035.19;5104669;28;20039;-68
2022/05/17 04:24:07;;;;;;;9.55;2.85;;;;;;;15.52;100.00;102037.88;5092142;28;20020;-68
2022/05/17 04:26:32;;;;;;;8.02;2.83;;;;;;;15.55;100.00;102034.38;5094959;28;20643;-68
2022/05/17 04:28:58;;;;;;;5.10;2.60;;;;;;;15.57;100.00;102032.66;5096610;28;20451;-68
2022/05/17 04:31:24;;;;;;;9.98;3.33;;;;;;;15.61;100.00;102036.22;5108118;28;20450;-68
2022/05/17 04:33:50;;;;;;;10.32;2.78;;;;;;;15.63;100.00;102037.16;5101098;28;20479;-68
2022/05/17 04:36:15;;;;;;;7.38;2.53;;;;;;;15.63;100.00;102040.69;5106214;28;20032;-68
2022/05/17 04:38:40;;;;;;;10.55;2.50;;;;;;;15.67;100.00;102031.91;5096399;28;20036;-68
2022/05/17 04:41:06;;;;;;;8.75;3.22;;;;;;;15.68;100.00;102033.69;5093900;28;20039;-68
2022/05/17 04:43:31;;;;;;;5.68;2.53;;;;;;;15.71;100.00;102032.88;5098735;28;20522;-68
2022/05/17 04:45:57;;;;;;;6.03;2.30;;;;;;;15.74;100.00;102035.56;5105736;28;20024;-68
2022/05/17 04:48:25;;;;;;;15.10;2.60;;;;;;;15.78;100.00;102037.38;5095916;28;20051;-68
2022/05/17 04:50:52;;;;;;;7.82;2.53;;;;;;;15.80;100.00;102035.69;5096017;28;20032;-68
2022/05/17 04:53:17;;;;;;;6.53;2.47;;;;;;;15.85;100.00;102044.56;5095756;28;20076;-68
2022/05/17 04:55:42;;;;;;;8.95;2.40;;;;;;;15.86;100.00;102045.50;5114924;28;20081;-68
2022/05/17 04:58:08;;;;;;;8.35;2.78;;;;;;;15.89;100.00;102049.94;5105838;28;20038;-68
2022/05/17 05:00:34;;;;;;;14.40;3.08;;;;;;;15.90;100.00;102043.75;5094646;28;20103;-68
2022/05/17 05:02:59;;;;;;;12.93;2.65;;;;;;;15.90;100.00;102049.06;5086783;28;20024;-69
2022/05/17 05:05:24;;;;;;;10.50;2.75;;;;;;;15.93;100.00;102062.41;5095594;28;20176;-68
2022/05/17 05:07:51;;;;;;;6.93;2.15;;;;;;;15.94;100.00;102064.16;5098308;28;20024;-67
2022/05/17 05:10:17;;;;;;;5.88;2.40;;;;;;;15.97;100.00;102067.75;5093965;28;20024;-68
2022/05/17 05:12:42;;;;;;;7.40;2.40;;;;;;;15.96;100.00;102062.44;5094838;28;20073;-68
2022/05/17 05:15:10;;;;;;;10.18;2.35;;;;;;;15.98;100.00;102066.91;5098540;28;20027;-68
2022/05/17 05:17:36;;;;;;;8.10;1.98;;;;;;;15.97;100.00;102064.22;5095135;28;20044;-68
2022/05/17 05:20:04;;;;;;;7.95;2.25;;;;;;;15.97;100.00;102072.19;5096848;28;20031;-68
2022/05/17 05:22:31;;;;;;;12.93;2.72;;;;;;;15.92;100.00;102068.56;5105426;28;20040;-68
2022/05/17 05:24:57;;;;;;;9.20;2.58;;;;;;;15.85;100.00;102071.13;5092037;28;20020;-69
2022/05/17 05:27:22;;;;;;;9.25;2.38;;;;;;;15.76;100.00;102070.97;5094739;28;20042;-68
2022/05/17 05:29:48;;;;;;;11.88;2.60;;;;;;;15.70;100.00;102073.53;5101062;28;20024;-70
2022/05/17 05:32:13;;;;;;;9.65;2.47;;;;;;;15.67;100.00;102073.50;5098540;28;20418;-69
2022/05/17 05:34:39;;;;;;;11.60;2.97;;;;;;;15.66;100.00;102074.34;5103116;28;20030;-69
2022/05/17 05:37:05;;;;;;;10.15;2.30;;;;;;;15.63;100.00;102072.53;5093249;28;20031;-70
2022/05/17 05:39:33;;;;;;;15.40;2.97;;;;;;;15.64;100.00;102073.41;5097268;28;20091;-74
2022/05/17 05:41:58;;;;;;;12.45;2.67;;;;;;;15.66;100.00;102082.31;5082359;28;20020;-68
2022/05/17 05:44:23;;;;;;;6.38;2.30;;;;;;;15.66;100.00;102069.03;5090181;28;20546;-69
2022/05/17 05:46:49;;;;;;;9.88;2.33;;;;;;;15.66;100.00;102072.56;5087742;28;20020;-69
2022/05/17 05:49:14;;;;;;;9.65;2.05;;;;;;;15.62;100.00;102075.19;5086911;28;20376;-69
2022/05/17 05:51:40;;;;;;;7.80;2.28;;;;;;;15.56;100.00;102078.63;5085325;28;20035;-68
2022/05/17 05:54:06;;;;;;;12.63;2.40;;;;;;;15.52;100.00;102077.69;5087084;28;20020;-70
2022/05/17 05:56:32;;;;;;;13.98;2.33;;;;;;;15.43;100.00;102071.34;5087341;28;20040;-69
2022/05/17 05:58:57;;;;;;;9.05;1.98;;;;;;;15.37;100.00;102065.91;5090385;28;20020;-69
2022/05/17 06:01:23;;;;;;;13.43;2.42;;;;;;;15.34;100.00;102072.97;5083215;28;20032;-69
2022/05/17 06:03:48;;;;;;;8.85;2.17;;;;;;;15.31;100.00;102070.28;5094804;28;20383;-69
2022/05/17 06:06:14;;;;;;;14.02;2.63;;;;;;;15.30;100.00;102064.94;5084081;28;20407;-72
2022/05/17 06:08:40;;;;;;;13.35;2.78;;;;;;;15.32;100.00;102065.84;5090239;28;20019;-69
2022/05/17 06:11:05;;;;;;;10.13;2.70;;;;;;;15.35;100.00;102071.19;5091247;28;20016;-69
2022/05/17 06:13:31;;;;;;;11.50;3.55;;;;;;;15.37;100.00;102068.56;5087730;28;20016;-69
2022/05/17 06:15:56;;;;;;;11.63;2.20;;;;;;;15.42;100.00;102072.19;5085321;28;20053;-70
2022/05/17 06:18:21;;;;;;;9.07;2.53;;;;;;;15.45;100.00;102081.09;5084337;28;20036;-69
2022/05/17 06:20:52;;;;;;;8.90;2.53;;;;;;;15.51;100.00;102077.66;5086217;28;20020;-69
2022/05/17 06:23:19;;;;;;;12.60;2.70;;;;;;;15.54;100.00;102079.47;5083345;28;20046;-69
2022/05/17 06:25:44;;;;;;;12.65;2.55;;;;;;;15.55;100.00;102081.25;5097141;28;20028;-70
2022/05/17 06:28:10;;;;;;;10.18;2.13;;;;;;;15.57;100.00;102085.72;5089131;28;20491;-69
2022/05/17 06:30:35;;;;;;;10.98;3.35;;;;;;;15.59;100.00;102083.09;5088012;28;20034;-69
2022/05/17 06:33:01;;;;;;;13.05;2.85;;;;;;;15.57;100.00;102080.41;5092400;28;20426;-69
2022/05/17 06:35:27;;;;;;;14.50;2.92;;;;;;;15.54;100.00;102075.03;5090122;28;20023;-69
2022/05/17 06:37:52;;;;;;;9.27;2.53;;;;;;;15.56;100.00;102080.38;5091335;28;20028;-69
2022/05/17 06:40:18;;;;;;;7.40;2.40;;;;;;;15.60;100.00;102082.19;5092334;28;20031;-69
2022/05/17 06:42:44;;;;;;;7.78;2.25;;;;;;;15.62;100.00;102083.13;5091433;28;20520;-70
2022/05/17 06:45:11;;;;;;;8.50;2.67;;;;;;;15.64;100.00;102087.59;5092281;28;20075;-70
2022/05/17 06:47:36;;;;;;;14.40;3.35;;;;;;;15.65;100.00;102078.78;5093169;28;20020;-69
2022/05/17 06:50:02;;;;;;;14.70;3.60;;;;;;;15.67;100.00;102070.84;5092074;28;20034;-70
2022/05/17 06:52:27;;;;;;;12.07;2.45;;;;;;;15.57;100.00;102064.50;5094675;28;20031;-70
2022/05/17 06:54:53;;;;;;;9.13;3.00;;;;;;;15.62;100.00;102072.53;5095789;28;20020;-70
2022/05/17 06:57:18;;;;;;;7.00;1.90;;;;;;;15.63;100.00;102075.19;5094382;28;20031;-69
2022/05/17 06:59:45;;;;;;;8.95;2.38;;;;;;;15.64;100.00;102063.72;5103768;28;20125;-69
2022/05/17 07:02:11;;;;;;;11.57;2.92;;;;;;;15.62;100.00;102069.88;5102591;28;20027;-69
2022/05/17 07:04:37;;;;;;;7.75;2.83;;;;;;;15.62;100.00;102069.88;5097135;28;20051;-69
2022/05/17 07:07:04;;;;;;;14.60;4.40;;;;;;;15.63;100.00;102074.31;5097809;28;20550;-69
2022/05/17 07:09:30;;;;;;;6.55;2.63;;;;;;;15.70;100.00;102077.94;5097239;28;20463;-69
2022/05/17 07:14:41;;;;;;;13.55;3.10;;;;;;;15.80;100.00;102074.59;5093466;28;20089;-69
2022/05/17 07:17:11;;;;;;;8.63;2.95;;;;;;;15.87;100.00;102084.44;5093505;28;20032;-69
2022/05/17 07:19:37;;;;;;;14.35;3.05;;;;;;;16.04;100.00;102078.47;5091875;28;20100;-70
2022/05/17 07:22:04;;;;;;;8.00;2.90;;;;;;;16.09;100.00;102082.97;5113295;28;20032;-69
2022/05/17 07:24:31;;;;;;;10.90;3.35;;;;;;;16.26;100.00;102077.88;5113696;28;20111;-69
2022/05/17 07:26:57;;;;;;;11.02;2.92;;;;;;;16.35;100.00;102083.31;5096465;28;20024;-69
2022/05/17 07:29:22;;;;;;;16.25;3.60;;;;;;;16.42;100.00;102084.28;5091627;28;20026;-70
2022/05/17 07:31:48;;;;;;;10.82;2.72;;;;;;;16.50;100.00;102093.22;5093341;28;20028;-69
2022/05/17 07:34:13;;;;;;;8.00;2.85;;;;;;;16.62;100.00;102086.28;5093098;28;20047;-69
2022/05/17 07:36:39;;;;;;;8.82;2.63;;;;;;;16.69;100.00;102080.16;5112243;28;20084;-69
2022/05/17 07:39:04;;;;;;;11.10;2.80;;;;;;;16.64;100.00;102095.16;5091534;28;20390;-69
2022/05/17 07:41:31;;;;;;;9.57;2.50;;;;;;;16.61;100.00;102090.69;5093004;28;20056;-69
2022/05/17 07:43:57;;;;;;;6.32;2.58;;;;;;;16.67;100.00;102092.53;5092106;28;20074;-70
2022/05/17 07:46:22;;;;;;;11.55;3.10;;;;;;;16.73;100.00;102097.91;5093090;28;20023;-69
2022/05/17 07:48:47;;;;;;;7.47;2.70;;;;;;;16.76;100.00;102094.41;5090340;28;20126;-70
2022/05/17 07:51:13;;;;;;;9.65;3.03;;;;;;;16.82;100.00;102098.03;5091026;28;20024;-69
2022/05/17 07:53:38;;;;;;;10.27;2.70;;;;;;;16.92;100.00;102107.03;5092944;28;20062;-68
2022/05/17 07:56:04;;;;;;;7.32;2.25;;;;;;;17.00;100.00;102104.44;5092998;28;20055;-69
2022/05/17 07:58:29;;;;;;;6.00;2.42;;;;;;;17.00;100.00;102102.66;5092932;28;20047;-68
2022/05/17 08:00:55;;;;;;;7.40;2.97;;;;;;;17.01;100.00;102104.47;5095759;28;20067;-70
2022/05/17 08:03:21;;;;;;;9.48;2.88;;;;;;;17.17;100.00;102107.25;5097009;28;20031;-69
2022/05/17 08:05:48;;;;;;;5.40;2.50;;;;;;;17.09;100.00;102109.88;5096217;28;20039;-70
2022/05/17 08:08:13;;;;;;;7.05;2.72;;;;;;;17.21;100.00;102114.38;5095900;28;20040;-69
2022/05/17 08:10:39;;;;;;;9.43;2.60;;;;;;;17.41;100.00;102113.69;5094814;28;20031;-69
2022/05/17 08:13:05;;;;;;;7.40;2.30;;;;;;;17.45;100.00;102112.84;5096898;28;20081;-70
2022/05/17 08:15:32;;;;;;;6.38;2.60;;;;;;;17.65;100.00;102116.53;5095513;28;20419;-71
2022/05/17 08:17:58;;;;;;;10.90;2.50;;;;;;;17.79;100.00;102118.44;5096786;28;20030;-70
2022/05/17 08:20:23;;;;;;;9.25;3.13;;;;;;;18.00;100.00;102117.69;5095332;28;20378;-73
2022/05/17 08:22:49;;;;;;;9.00;2.50;;;;;;;17.96;100.00;102115.88;5096263;28;20502;-70
2022/05/17 08:28:03;;;;;;;8.55;2.72;;;;;;;18.16;100.00;102103.59;5095826;28;20442;-69
2022/05/17 08:30:30;;;;;;;7.80;2.95;;;;;;;18.25;100.00;102102.75;5094540;28;20464;-70
2022/05/17 08:33:16;;;;;;;5.82;2.17;;;;;;;18.35;100.00;102103.66;5093478;28;20161;-70
2022/05/17 08:35:55;;;;;;;6.93;2.33;;;;;;;18.50;100.00;102100.19;5091850;28;20531;-70
2022/05/17 08:38:48;;;;;;;5.20;2.20;;;;;;;18.67;100.00;102092.25;5095798;28;20034;-69
2022/05/17 08:41:24;;;;;;;6.50;2.25;;;;;;;18.83;100.00;102096.72;5091364;28;20051;-70
2022/05/17 08:43:49;;;;;;;4.40;2.47;;;;;;;18.99;100.00;102091.44;5077249;28;20048;-69
2022/05/17 08:46:28;;;;;;;3.73;2.27;;;;;;;19.14;100.00;102093.25;5095275;28;20088;-66
2022/05/17 08:49:04;;;;;;;4.97;2.13;;;;;;;19.26;100.00;102100.38;5096179;28;20289;-67
2022/05/17 08:51:42;;;;;;;3.25;1.90;;;;;;;19.52;100.00;102098.59;5109957;28;20504;-69
2022/05/17 08:54:13;;;;;;;3.13;1.98;;;;;;;19.55;100.00;102092.38;5098804;28;20610;-70
2022/05/17 08:56:44;;;;;;;6.13;2.40;;;;;;;19.59;100.00;102101.25;5095252;28;20034;-71
2022/05/17 08:59:15;;;;;;;3.90;1.83;;;;;;;19.53;100.00;102102.16;5101103;28;20024;-70
2022/05/17 09:01:48;;;;;;;5.25;1.80;;;;;;;19.36;100.00;102107.50;5097661;28;20019;-71
2022/05/17 09:04:27;;;;;;;3.72;1.70;;;;;;;19.50;100.00;102097.69;5106867;28;20021;-70
2022/05/17 09:06:58;;;;;;;5.03;1.80;;;;;;;19.66;100.00;102097.72;5082667;28;20020;-71
2022/05/17 09:09:42;;;;;;;5.20;1.73;;;;;;;19.67;100.00;102097.69;5095366;28;20043;-71
2022/05/17 09:12:17;;;;;;;5.57;1.88;;;;;;;19.77;100.00;102092.34;5107465;28;20024;-70
2022/05/17 09:14:46;;;;;;;3.83;1.85;;;;;;;19.99;100.00;102085.19;5101335;28;20027;-71
2022/05/17 09:17:19;;;;;;;8.23;2.60;;;;;;;20.05;100.00;102082.53;5093079;28;20499;-71
2022/05/17 09:19:47;;;;;;;8.70;2.10;;;;;;;20.19;100.00;102079.81;5101261;28;20040;-71
2022/05/17 09:22:13;;;;;;;5.63;2.92;;;;;;;20.35;100.00;102091.34;5093598;28;20485;-70
2022/05/17 09:24:41;;;;;;;9.35;3.00;;;;;;;20.51;100.00;102082.34;5090014;28;20103;-71
2022/05/17 09:27:09;;;;;;;7.28;3.03;;;;;;;20.54;100.00;102092.13;5088008;28;20103;-71
2022/05/17 09:29:37;;;;;;;8.65;2.90;;;;;;;20.73;100.00;102098.31;5087012;28;20759;-72
2022/05/17 09:32:08;;;;;;;4.65;2.50;;;;;;;20.89;100.00;102089.28;5083407;28;20056;-71
2022/05/17 09:34:38;;;;;;;5.70;2.92;;;;;;;21.01;100.00;102090.09;5092849;28;20052;-71
2022/05/17 09:37:14;;;;;;;4.68;2.22;;;;;;;20.97;100.00;102091.00;5082770;28;20028;-71
2022/05/17 09:39:45;;;;;;;8.93;2.58;;;;;;;21.06;100.00;102096.28;5088396;28;20055;-71
2022/05/17 09:42:20;;;;;;;4.45;2.10;;;;;;;21.17;100.00;102086.38;5086465;28;20015;-71
2022/05/17 09:44:46;;;;;;;2.92;1.95;;;;;;;21.36;100.00;102105.00;5092400;28;20416;-71
2022/05/17 09:47:23;;;;;;;8.23;2.00;;;;;;;21.41;100.00;102092.47;5097378;28;20079;-70
2022/05/17 09:52:35;;;;;;;7.53;2.30;;;;;;;21.44;96.08;102080.84;5094717;28;20109;-71
2022/05/17 09:55:12;;;;;;;4.10;1.85;;;;;;;21.44;100.00;102081.72;5097514;28;20016;-73
2022/05/17 09:57:53;;;;;;;3.65;1.90;;;;;;;21.64;100.00;102086.03;5096116;28;20115;-72
2022/05/17 10:00:25;;;;;;;8.82;2.30;;;;;;;21.77;100.00;102084.13;5099880;28;20392;-71
2022/05/17 10:02:57;;;;;;;6.38;2.42;;;;;;;22.06;100.00;102081.13;5092807;28;20027;-71
2022/05/17 10:05:30;;;;;;;6.07;2.22;;;;;;;21.82;100.00;102074.25;5110340;28;20126;-70
2022/05/17 10:08:00;;;;;;;4.88;2.75;;;;;;;21.90;98.24;102073.25;5094277;28;20034;-70
2022/05/17 10:10:33;;;;;;;6.65;2.72;;;;;;;21.87;99.60;102065.25;5094531;28;20157;-70
2022/05/17 10:13:25;;;;;;;8.50;2.97;;;;;;;21.69;99.38;102070.78;5095214;28;20024;-70
2022/05/17 10:15:56;;;;;;;5.78;2.28;;;;;;;21.88;97.67;102061.66;5083068;28;20046;-69
2022/05/17 10:18:40;;;;;;;5.25;2.53;;;;;;;21.84;97.32;102062.59;5083079;28;20039;-70
2022/05/17 10:21:14;;;;;;;5.70;2.72;;;;;;;21.72;95.45;102065.41;5085082;28;20050;-70
2022/05/17 10:23:50;;;;;;;5.13;2.30;;;;;;;21.80;99.07;102060.88;5089367;28;20032;-69
2022/05/17 10:26:24;;;;;;;9.13;2.92;;;;;;;21.93;95.91;102052.69;5096238;28;20396;-70
2022/05/17 10:29:16;;;;;;;8.07;2.85;;;;;;;22.05;95.09;102063.25;5084733;28;20108;-70
2022/05/17 10:31:50;;;;;;;6.30;2.47;;;;;;;22.09;95.88;102053.41;5094490;28;20574;-67
2022/05/17 10:34:30;;;;;;;7.78;2.85;;;;;;;22.04;94.59;102045.41;5094000;28;20146;-68
2022/05/17 10:37:01;;;;;;;3.75;1.85;;;;;;;22.29;95.44;102051.34;5093875;28;20030;-68
2022/05/17 10:39:44;;;;;;;8.20;2.67;;;;;;;22.35;94.67;102050.41;5092862;28;20024;-68
2022/05/17 10:42:10;;;;;;;5.82;3.25;;;;;;;22.49;94.22;102037.69;5081775;28;20052;-69
2022/05/17 10:44:53;;;;;;;10.15;2.78;;;;;;;22.51;88.10;102040.34;5100964;28;20079;-69
2022/05/17 10:47:33;;;;;;;6.13;2.85;;;;;;;22.64;87.31;102039.28;5093132;28;20143;-68
2022/05/17 10:50:05;;;;;;;7.18;2.85;;;;;;;22.55;90.06;102037.59;5098419;28;20473;-70
2022/05/17 10:52:42;;;;;;;8.10;3.03;;;;;;;22.70;89.78;102035.59;5093603;28;20082;-68
2022/05/17 10:55:12;;;;;;;10.35;3.95;;;;;;;22.81;90.02;102038.13;5081868;28;20024;-69
2022/05/17 10:57:56;;;;;;;5.75;3.22;;;;;;;23.04;87.78;102027.03;5091747;28;20118;-68
2022/05/17 11:00:29;;;;;;;9.38;3.55;;;;;;;23.07;90.23;102029.66;5084285;28;20395;-69
2022/05/17 11:03:01;;;;;;;5.85;3.08;;;;;;;23.13;90.86;102026.91;5108050;28;20027;-68
2022/05/17 11:05:40;;;;;;;6.47;3.35;;;;;;;23.45;88.21;102028.13;5092882;28;20085;-69
2022/05/17 11:08:10;;;;;;;8.30;4.65;;;;;;;23.41;83.02;102023.72;5098409;28;20027;-70
2022/05/17 11:10:47;;;;;;;8.70;4.25;;;;;;;23.43;84.28;102023.69;5103656;28;20042;-69
2022/05/17 11:13:36;;;;;;;9.90;4.65;;;;;;;23.48;83.33;102021.81;5091977;28;20028;-68
2022/05/17 11:16:12;;;;;;;7.82;4.20;;;;;;;23.58;81.68;102013.53;5097529;28;20379;-69
2022/05/17 11:18:51;;;;;;;9.15;3.88;;;;;;;23.73;87.35;102020.41;5091533;28;20047;-68
2022/05/17 11:21:23;;;;;;;8.98;4.60;;;;;;;23.89;82.14;102012.97;5103337;28;20092;-68
2022/05/17 11:23:48;;;;;;;6.75;4.03;;;;;;;23.96;82.83;102011.03;5096698;28;20371;-69
2022/05/17 11:26:41;;;;;;;8.15;4.60;;;;;;;23.97;82.81;102007.44;5092494;28;20042;-68
2022/05/17 11:29:39;;;;;;;10.07;5.60;;;;;;;24.03;81.82;102001.91;5091810;28;20028;-69
2022/05/17 11:32:34;;;;;;;10.23;5.50;;;;;;;24.39;80.68;101998.44;5097247;28;20027;-68
2022/05/17 11:35:03;;;;;;;15.98;5.85;;;;;;;24.38;80.47;102005.63;5092232;28;20027;-68
2022/05/17 11:37:36;;;;;;;14.32;5.18;;;;;;;24.19;82.88;101996.22;5097458;28;20107;-69